sensor_id;sensor_type;location;lat;lon;timestamp;P1;durP1;ratioP1;P2;durP2;ratioP2
28304;SDS011;15569;42.652;23.040;2023-12-20T00:02:22;85.38;;;30.13;;
28304;SDS011;15569;42.652;23.040;2023-12-20T00:04:48;69.72;;;28.77;;
28304;SDS011;15569;42.652;23.040;2023-12-20T00:07:13;77.43;;;31.33;;
28304;SDS011;15569;42.652;23.040;2023-12-20T00:09:39;52.70;;;24.50;;
28304;SDS011;15569;42.652;23.040;2023-12-20T00:12:04;51.80;;;24.45;;
28304;SDS011;15569;42.652;23.040;2023-12-20T00:14:30;52.33;;;24.15;;
28304;SDS011;15569;42.652;23.040;2023-12-20T00:16:55;60.75;;;27.55;;
28304;SDS011;15569;42.652;23.040;2023-12-20T00:19:20;65.93;;;26.83;;
28304;SDS011;15569;42.652;23.040;2023-12-20T00:21:46;61.05;;;27.23;;
28304;SDS011;15569;42.652;23.040;2023-12-20T00:24:11;55.75;;;24.88;;
28304;SDS011;15569;42.652;23.040;2023-12-20T00:26:37;63.95;;;25.50;;
28304;SDS011;15569;42.652;23.040;2023-12-20T00:29:02;51.42;;;23.50;;
28304;SDS011;15569;42.652;23.040;2023-12-20T00:31:27;65.15;;;25.08;;
28304;SDS011;15569;42.652;23.040;2023-12-20T00:33:53;56.55;;;25.67;;
28304;SDS011;15569;42.652;23.040;2023-12-20T00:36:18;46.35;;;23.15;;
28304;SDS011;15569;42.652;23.040;2023-12-20T00:38:44;58.88;;;26.50;;
28304;SDS011;15569;42.652;23.040;2023-12-20T00:41:09;46.15;;;21.42;;
28304;SDS011;15569;42.652;23.040;2023-12-20T00:43:35;54.35;;;20.63;;
28304;SDS011;15569;42.652;23.040;2023-12-20T00:46:00;41.22;;;18.95;;
28304;SDS011;15569;42.652;23.040;2023-12-20T00:48:26;40.42;;;17.75;;
28304;SDS011;15569;42.652;23.040;2023-12-20T00:50:56;46.95;;;19.58;;
28304;SDS011;15569;42.652;23.040;2023-12-20T00:53:22;43.17;;;17.48;;
28304;SDS011;15569;42.652;23.040;2023-12-20T00:55:47;43.45;;;19.00;;
28304;SDS011;15569;42.652;23.040;2023-12-20T00:58:13;41.08;;;17.52;;
28304;SDS011;15569;42.652;23.040;2023-12-20T01:00:40;38.00;;;18.98;;
28304;SDS011;15569;42.652;23.040;2023-12-20T01:03:07;33.00;;;18.17;;
28304;SDS011;15569;42.652;23.040;2023-12-20T01:05:32;44.13;;;18.83;;
28304;SDS011;15569;42.652;23.040;2023-12-20T01:07:57;42.83;;;20.88;;
28304;SDS011;15569;42.652;23.040;2023-12-20T01:10:23;42.53;;;19.08;;
28304;SDS011;15569;42.652;23.040;2023-12-20T01:12:48;34.22;;;16.73;;
28304;SDS011;15569;42.652;23.040;2023-12-20T01:15:14;37.25;;;18.42;;
28304;SDS011;15569;42.652;23.040;2023-12-20T01:17:39;45.10;;;18.15;;
28304;SDS011;15569;42.652;23.040;2023-12-20T01:20:05;52.63;;;22.65;;
28304;SDS011;15569;42.652;23.040;2023-12-20T01:22:31;45.80;;;21.38;;
28304;SDS011;15569;42.652;23.040;2023-12-20T01:24:56;47.25;;;18.50;;
28304;SDS011;15569;42.652;23.040;2023-12-20T01:27:21;45.53;;;19.80;;
28304;SDS011;15569;42.652;23.040;2023-12-20T01:29:47;41.03;;;19.55;;
28304;SDS011;15569;42.652;23.040;2023-12-20T01:32:12;43.67;;;18.95;;
28304;SDS011;15569;42.652;23.040;2023-12-20T01:34:38;46.90;;;19.10;;
28304;SDS011;15569;42.652;23.040;2023-12-20T01:37:03;42.05;;;18.30;;
28304;SDS011;15569;42.652;23.040;2023-12-20T01:39:29;35.47;;;17.52;;
28304;SDS011;15569;42.652;23.040;2023-12-20T01:41:54;34.65;;;14.98;;
28304;SDS011;15569;42.652;23.040;2023-12-20T01:44:19;40.10;;;14.40;;
28304;SDS011;15569;42.652;23.040;2023-12-20T01:46:45;31.15;;;12.50;;
28304;SDS011;15569;42.652;23.040;2023-12-20T01:49:11;24.67;;;12.75;;
28304;SDS011;15569;42.652;23.040;2023-12-20T01:51:37;26.90;;;11.90;;
28304;SDS011;15569;42.652;23.040;2023-12-20T01:54:03;31.20;;;13.15;;
28304;SDS011;15569;42.652;23.040;2023-12-20T01:56:29;21.23;;;11.18;;
28304;SDS011;15569;42.652;23.040;2023-12-20T01:58:56;25.25;;;11.98;;
28304;SDS011;15569;42.652;23.040;2023-12-20T02:01:22;34.55;;;12.23;;
28304;SDS011;15569;42.652;23.040;2023-12-20T02:03:47;26.63;;;12.90;;
28304;SDS011;15569;42.652;23.040;2023-12-20T02:06:13;27.90;;;11.18;;
28304;SDS011;15569;42.652;23.040;2023-12-20T02:08:39;24.77;;;11.25;;
28304;SDS011;15569;42.652;23.040;2023-12-20T02:11:05;29.55;;;13.05;;
28304;SDS011;15569;42.652;23.040;2023-12-20T02:13:30;27.92;;;13.23;;
28304;SDS011;15569;42.652;23.040;2023-12-20T02:15:56;38.20;;;15.27;;
28304;SDS011;15569;42.652;23.040;2023-12-20T02:18:22;51.67;;;17.73;;
28304;SDS011;15569;42.652;23.040;2023-12-20T02:20:47;48.17;;;18.58;;
28304;SDS011;15569;42.652;23.040;2023-12-20T02:23:13;43.45;;;17.35;;
28304;SDS011;15569;42.652;23.040;2023-12-20T02:25:38;35.35;;;16.85;;
28304;SDS011;15569;42.652;23.040;2023-12-20T02:28:04;47.70;;;16.55;;
28304;SDS011;15569;42.652;23.040;2023-12-20T02:30:30;28.95;;;12.77;;
28304;SDS011;15569;42.652;23.040;2023-12-20T02:32:56;21.67;;;10.05;;
28304;SDS011;15569;42.652;23.040;2023-12-20T02:35:23;21.05;;;8.70;;
28304;SDS011;15569;42.652;23.040;2023-12-20T02:37:48;17.45;;;8.00;;
28304;SDS011;15569;42.652;23.040;2023-12-20T02:40:14;16.45;;;8.18;;
28304;SDS011;15569;42.652;23.040;2023-12-20T02:42:39;19.73;;;8.13;;
28304;SDS011;15569;42.652;23.040;2023-12-20T02:45:04;15.77;;;7.57;;
28304;SDS011;15569;42.652;23.040;2023-12-20T02:47:30;22.65;;;8.27;;
28304;SDS011;15569;42.652;23.040;2023-12-20T02:49:56;20.42;;;8.15;;
28304;SDS011;15569;42.652;23.040;2023-12-20T02:52:22;13.93;;;7.70;;
28304;SDS011;15569;42.652;23.040;2023-12-20T02:54:49;16.15;;;8.13;;
28304;SDS011;15569;42.652;23.040;2023-12-20T02:57:14;23.98;;;8.95;;
28304;SDS011;15569;42.652;23.040;2023-12-20T02:59:40;35.33;;;14.30;;
28304;SDS011;15569;42.652;23.040;2023-12-20T03:02:05;35.42;;;13.25;;
28304;SDS011;15569;42.652;23.040;2023-12-20T03:04:30;31.02;;;12.30;;
28304;SDS011;15569;42.652;23.040;2023-12-20T03:06:56;30.48;;;12.15;;
28304;SDS011;15569;42.652;23.040;2023-12-20T03:09:21;34.97;;;14.00;;
28304;SDS011;15569;42.652;23.040;2023-12-20T03:11:46;39.03;;;14.07;;
28304;SDS011;15569;42.652;23.040;2023-12-20T03:14:12;42.92;;;19.35;;
28304;SDS011;15569;42.652;23.040;2023-12-20T03:16:37;56.88;;;20.75;;
28304;SDS011;15569;42.652;23.040;2023-12-20T03:19:02;38.22;;;19.05;;
28304;SDS011;15569;42.652;23.040;2023-12-20T03:21:28;62.25;;;22.88;;
28304;SDS011;15569;42.652;23.040;2023-12-20T03:23:53;62.05;;;24.33;;
28304;SDS011;15569;42.652;23.040;2023-12-20T03:26:18;54.42;;;22.60;;
28304;SDS011;15569;42.652;23.040;2023-12-20T03:28:44;58.47;;;25.40;;
28304;SDS011;15569;42.652;23.040;2023-12-20T03:31:09;53.45;;;21.48;;
28304;SDS011;15569;42.652;23.040;2023-12-20T03:33:35;58.50;;;21.77;;
28304;SDS011;15569;42.652;23.040;2023-12-20T03:36:00;49.92;;;22.58;;
28304;SDS011;15569;42.652;23.040;2023-12-20T03:38:26;48.15;;;19.95;;
28304;SDS011;15569;42.652;23.040;2023-12-20T03:40:51;53.97;;;21.58;;
28304;SDS011;15569;42.652;23.040;2023-12-20T03:43:17;62.15;;;22.48;;
28304;SDS011;15569;42.652;23.040;2023-12-20T03:45:42;40.42;;;16.70;;
28304;SDS011;15569;42.652;23.040;2023-12-20T03:48:08;33.10;;;12.95;;
28304;SDS011;15569;42.652;23.040;2023-12-20T03:50:34;46.38;;;18.20;;
28304;SDS011;15569;42.652;23.040;2023-12-20T03:53:00;29.27;;;12.93;;
28304;SDS011;15569;42.652;23.040;2023-12-20T03:55:25;39.45;;;16.45;;
28304;SDS011;15569;42.652;23.040;2023-12-20T03:57:50;27.77;;;12.55;;
28304;SDS011;15569;42.652;23.040;2023-12-20T04:00:16;40.13;;;16.40;;
28304;SDS011;15569;42.652;23.040;2023-12-20T04:02:41;50.38;;;20.58;;
28304;SDS011;15569;42.652;23.040;2023-12-20T04:05:07;65.82;;;28.45;;
28304;SDS011;15569;42.652;23.040;2023-12-20T04:07:37;56.92;;;23.15;;
28304;SDS011;15569;42.652;23.040;2023-12-20T04:10:03;44.50;;;23.17;;
28304;SDS011;15569;42.652;23.040;2023-12-20T04:12:32;59.47;;;22.30;;
28304;SDS011;15569;42.652;23.040;2023-12-20T04:14:57;49.95;;;20.77;;
28304;SDS011;15569;42.652;23.040;2023-12-20T04:17:23;42.97;;;18.40;;
28304;SDS011;15569;42.652;23.040;2023-12-20T04:19:49;38.97;;;16.95;;
28304;SDS011;15569;42.652;23.040;2023-12-20T04:22:14;35.50;;;16.48;;
28304;SDS011;15569;42.652;23.040;2023-12-20T04:24:40;61.90;;;20.52;;
28304;SDS011;15569;42.652;23.040;2023-12-20T04:27:07;56.20;;;21.00;;
28304;SDS011;15569;42.652;23.040;2023-12-20T04:29:33;42.13;;;20.10;;
28304;SDS011;15569;42.652;23.040;2023-12-20T04:31:58;47.30;;;20.05;;
28304;SDS011;15569;42.652;23.040;2023-12-20T04:34:24;32.50;;;17.33;;
28304;SDS011;15569;42.652;23.040;2023-12-20T04:36:49;29.35;;;14.65;;
28304;SDS011;15569;42.652;23.040;2023-12-20T04:39:14;31.38;;;14.30;;
28304;SDS011;15569;42.652;23.040;2023-12-20T04:41:40;22.98;;;11.68;;
28304;SDS011;15569;42.652;23.040;2023-12-20T04:44:05;21.88;;;10.63;;
28304;SDS011;15569;42.652;23.040;2023-12-20T04:46:31;28.85;;;11.77;;
28304;SDS011;15569;42.652;23.040;2023-12-20T04:48:56;21.20;;;10.60;;
28304;SDS011;15569;42.652;23.040;2023-12-20T04:51:22;22.30;;;11.30;;
28304;SDS011;15569;42.652;23.040;2023-12-20T04:53:47;29.70;;;12.77;;
28304;SDS011;15569;42.652;23.040;2023-12-20T04:56:12;19.33;;;10.40;;
28304;SDS011;15569;42.652;23.040;2023-12-20T04:58:38;17.25;;;8.88;;
28304;SDS011;15569;42.652;23.040;2023-12-20T05:01:04;24.75;;;9.75;;
28304;SDS011;15569;42.652;23.040;2023-12-20T05:03:31;21.48;;;11.60;;
28304;SDS011;15569;42.652;23.040;2023-12-20T05:05:56;29.00;;;10.70;;
28304;SDS011;15569;42.652;23.040;2023-12-20T05:08:21;34.60;;;11.77;;
28304;SDS011;15569;42.652;23.040;2023-12-20T05:10:47;33.75;;;14.63;;
28304;SDS011;15569;42.652;23.040;2023-12-20T05:13:12;30.33;;;13.40;;
28304;SDS011;15569;42.652;23.040;2023-12-20T05:15:38;37.80;;;11.95;;
28304;SDS011;15569;42.652;23.040;2023-12-20T05:18:04;20.02;;;8.90;;
28304;SDS011;15569;42.652;23.040;2023-12-20T05:20:29;17.25;;;9.77;;
28304;SDS011;15569;42.652;23.040;2023-12-20T05:22:54;22.60;;;9.32;;
28304;SDS011;15569;42.652;23.040;2023-12-20T05:25:20;26.77;;;9.57;;
28304;SDS011;15569;42.652;23.040;2023-12-20T05:27:45;19.90;;;9.40;;
28304;SDS011;15569;42.652;23.040;2023-12-20T05:30:11;14.98;;;8.25;;
28304;SDS011;15569;42.652;23.040;2023-12-20T05:32:36;16.45;;;8.23;;
28304;SDS011;15569;42.652;23.040;2023-12-20T05:35:02;16.08;;;7.95;;
28304;SDS011;15569;42.652;23.040;2023-12-20T05:37:28;17.73;;;9.18;;
28304;SDS011;15569;42.652;23.040;2023-12-20T05:39:53;14.77;;;8.07;;
28304;SDS011;15569;42.652;23.040;2023-12-20T05:42:19;14.85;;;7.38;;
28304;SDS011;15569;42.652;23.040;2023-12-20T05:44:44;18.15;;;9.02;;
28304;SDS011;15569;42.652;23.040;2023-12-20T05:47:10;19.95;;;10.13;;
28304;SDS011;15569;42.652;23.040;2023-12-20T05:49:35;21.88;;;9.95;;
28304;SDS011;15569;42.652;23.040;2023-12-20T05:52:00;21.05;;;10.27;;
28304;SDS011;15569;42.652;23.040;2023-12-20T05:54:26;20.27;;;10.05;;
28304;SDS011;15569;42.652;23.040;2023-12-20T05:56:51;17.10;;;9.50;;
28304;SDS011;15569;42.652;23.040;2023-12-20T05:59:16;21.23;;;10.20;;
28304;SDS011;15569;42.652;23.040;2023-12-20T06:01:42;21.73;;;11.32;;
28304;SDS011;15569;42.652;23.040;2023-12-20T06:04:07;17.42;;;10.07;;
28304;SDS011;15569;42.652;23.040;2023-12-20T06:06:33;27.73;;;11.40;;
28304;SDS011;15569;42.652;23.040;2023-12-20T06:08:58;20.50;;;11.13;;
28304;SDS011;15569;42.652;23.040;2023-12-20T06:11:23;22.27;;;10.63;;
28304;SDS011;15569;42.652;23.040;2023-12-20T06:13:49;24.23;;;11.25;;
28304;SDS011;15569;42.652;23.040;2023-12-20T06:16:17;25.60;;;11.30;;
28304;SDS011;15569;42.652;23.040;2023-12-20T06:18:43;21.58;;;10.30;;
28304;SDS011;15569;42.652;23.040;2023-12-20T06:21:08;20.55;;;9.88;;
28304;SDS011;15569;42.652;23.040;2023-12-20T06:23:37;31.90;;;12.32;;
28304;SDS011;15569;42.652;23.040;2023-12-20T06:26:03;29.42;;;11.93;;
28304;SDS011;15569;42.652;23.040;2023-12-20T06:28:28;24.83;;;10.50;;
28304;SDS011;15569;42.652;23.040;2023-12-20T06:30:53;24.67;;;10.93;;
28304;SDS011;15569;42.652;23.040;2023-12-20T06:33:20;22.08;;;10.63;;
28304;SDS011;15569;42.652;23.040;2023-12-20T06:35:47;21.15;;;9.18;;
28304;SDS011;15569;42.652;23.040;2023-12-20T06:38:12;24.02;;;10.15;;
28304;SDS011;15569;42.652;23.040;2023-12-20T06:40:37;25.23;;;11.25;;
28304;SDS011;15569;42.652;23.040;2023-12-20T06:43:03;25.58;;;12.40;;
28304;SDS011;15569;42.652;23.040;2023-12-20T06:45:28;24.67;;;11.07;;
28304;SDS011;15569;42.652;23.040;2023-12-20T06:47:54;29.00;;;13.30;;
28304;SDS011;15569;42.652;23.040;2023-12-20T06:50:20;67.40;;;25.98;;
28304;SDS011;15569;42.652;23.040;2023-12-20T06:52:45;46.55;;;17.33;;
28304;SDS011;15569;42.652;23.040;2023-12-20T06:55:11;63.83;;;24.15;;
28304;SDS011;15569;42.652;23.040;2023-12-20T06:57:36;44.20;;;18.30;;
28304;SDS011;15569;42.652;23.040;2023-12-20T07:00:02;58.30;;;23.80;;
28304;SDS011;15569;42.652;23.040;2023-12-20T07:02:28;31.40;;;13.93;;
28304;SDS011;15569;42.652;23.040;2023-12-20T07:04:55;34.70;;;14.50;;
28304;SDS011;15569;42.652;23.040;2023-12-20T07:07:21;50.95;;;17.45;;
28304;SDS011;15569;42.652;23.040;2023-12-20T07:09:48;59.83;;;26.10;;
28304;SDS011;15569;42.652;23.040;2023-12-20T07:12:13;30.50;;;16.48;;
28304;SDS011;15569;42.652;23.040;2023-12-20T07:14:39;37.63;;;18.95;;
28304;SDS011;15569;42.652;23.040;2023-12-20T07:17:04;33.42;;;15.95;;
28304;SDS011;15569;42.652;23.040;2023-12-20T07:19:30;41.80;;;18.17;;
28304;SDS011;15569;42.652;23.040;2023-12-20T07:21:55;36.70;;;17.40;;
28304;SDS011;15569;42.652;23.040;2023-12-20T07:24:20;35.33;;;15.60;;
28304;SDS011;15569;42.652;23.040;2023-12-20T07:26:46;38.67;;;15.00;;
28304;SDS011;15569;42.652;23.040;2023-12-20T07:29:11;36.55;;;16.17;;
28304;SDS011;15569;42.652;23.040;2023-12-20T07:31:36;36.58;;;16.98;;
28304;SDS011;15569;42.652;23.040;2023-12-20T07:34:03;24.95;;;13.68;;
28304;SDS011;15569;42.652;23.040;2023-12-20T07:36:28;33.20;;;15.38;;
28304;SDS011;15569;42.652;23.040;2023-12-20T07:38:54;22.48;;;10.60;;
28304;SDS011;15569;42.652;23.040;2023-12-20T07:41:19;27.08;;;12.50;;
28304;SDS011;15569;42.652;23.040;2023-12-20T07:43:46;25.45;;;11.45;;
28304;SDS011;15569;42.652;23.040;2023-12-20T07:46:12;21.38;;;10.00;;
28304;SDS011;15569;42.652;23.040;2023-12-20T07:48:37;28.55;;;11.75;;
28304;SDS011;15569;42.652;23.040;2023-12-20T07:51:04;20.45;;;9.82;;
28304;SDS011;15569;42.652;23.040;2023-12-20T07:53:30;18.98;;;8.82;;
28304;SDS011;15569;42.652;23.040;2023-12-20T07:55:56;18.25;;;9.95;;
28304;SDS011;15569;42.652;23.040;2023-12-20T07:58:21;20.70;;;11.18;;
28304;SDS011;15569;42.652;23.040;2023-12-20T08:00:47;14.30;;;7.70;;
28304;SDS011;15569;42.652;23.040;2023-12-20T08:03:12;20.48;;;9.95;;
28304;SDS011;15569;42.652;23.040;2023-12-20T08:05:38;21.05;;;10.32;;
28304;SDS011;15569;42.652;23.040;2023-12-20T08:08:05;23.42;;;8.88;;
28304;SDS011;15569;42.652;23.040;2023-12-20T08:10:31;19.50;;;9.20;;
28304;SDS011;15569;42.652;23.040;2023-12-20T08:12:56;16.42;;;7.90;;
28304;SDS011;15569;42.652;23.040;2023-12-20T08:15:22;18.83;;;6.72;;
28304;SDS011;15569;42.652;23.040;2023-12-20T08:17:47;18.40;;;7.15;;
28304;SDS011;15569;42.652;23.040;2023-12-20T08:20:12;13.50;;;7.25;;
28304;SDS011;15569;42.652;23.040;2023-12-20T08:22:38;16.88;;;9.05;;
28304;SDS011;15569;42.652;23.040;2023-12-20T08:25:03;10.45;;;6.10;;
28304;SDS011;15569;42.652;23.040;2023-12-20T08:27:29;11.43;;;5.90;;
28304;SDS011;15569;42.652;23.040;2023-12-20T08:29:56;15.45;;;6.32;;
28304;SDS011;15569;42.652;23.040;2023-12-20T08:32:24;17.90;;;8.57;;
28304;SDS011;15569;42.652;23.040;2023-12-20T08:34:51;15.13;;;7.10;;
28304;SDS011;15569;42.652;23.040;2023-12-20T08:37:16;19.48;;;9.98;;
28304;SDS011;15569;42.652;23.040;2023-12-20T08:39:41;14.27;;;7.70;;
28304;SDS011;15569;42.652;23.040;2023-12-20T08:42:09;34.25;;;13.23;;
28304;SDS011;15569;42.652;23.040;2023-12-20T08:44:34;22.27;;;10.15;;
28304;SDS011;15569;42.652;23.040;2023-12-20T08:47:00;36.05;;;13.07;;
28304;SDS011;15569;42.652;23.040;2023-12-20T08:49:25;26.35;;;10.75;;
28304;SDS011;15569;42.652;23.040;2023-12-20T08:51:50;20.38;;;8.57;;
28304;SDS011;15569;42.652;23.040;2023-12-20T08:54:16;14.73;;;8.13;;
28304;SDS011;15569;42.652;23.040;2023-12-20T08:56:42;18.80;;;8.30;;
28304;SDS011;15569;42.652;23.040;2023-12-20T08:59:08;18.00;;;10.05;;
28304;SDS011;15569;42.652;23.040;2023-12-20T09:01:34;22.33;;;10.13;;
28304;SDS011;15569;42.652;23.040;2023-12-20T09:04:00;16.90;;;9.63;;
28304;SDS011;15569;42.652;23.040;2023-12-20T09:06:25;20.98;;;10.35;;
28304;SDS011;15569;42.652;23.040;2023-12-20T09:08:51;15.57;;;8.63;;
28304;SDS011;15569;42.652;23.040;2023-12-20T09:11:16;17.02;;;8.88;;
28304;SDS011;15569;42.652;23.040;2023-12-20T09:13:42;18.23;;;8.55;;
28304;SDS011;15569;42.652;23.040;2023-12-20T09:16:09;18.95;;;9.77;;
28304;SDS011;15569;42.652;23.040;2023-12-20T09:18:35;15.48;;;7.93;;
28304;SDS011;15569;42.652;23.040;2023-12-20T09:21:00;21.80;;;9.32;;
28304;SDS011;15569;42.652;23.040;2023-12-20T09:23:27;16.88;;;7.88;;
28304;SDS011;15569;42.652;23.040;2023-12-20T09:25:52;17.20;;;8.45;;
28304;SDS011;15569;42.652;23.040;2023-12-20T09:28:17;15.00;;;7.47;;
28304;SDS011;15569;42.652;23.040;2023-12-20T09:30:43;30.80;;;12.13;;
28304;SDS011;15569;42.652;23.040;2023-12-20T09:33:10;22.08;;;8.40;;
28304;SDS011;15569;42.652;23.040;2023-12-20T09:35:35;16.67;;;7.93;;
28304;SDS011;15569;42.652;23.040;2023-12-20T09:38:01;20.63;;;9.93;;
28304;SDS011;15569;42.652;23.040;2023-12-20T09:40:26;21.42;;;9.48;;
28304;SDS011;15569;42.652;23.040;2023-12-20T09:43:08;13.85;;;6.93;;
28304;SDS011;15569;42.652;23.040;2023-12-20T09:45:36;17.83;;;8.40;;
28304;SDS011;15569;42.652;23.040;2023-12-20T09:48:03;19.77;;;9.07;;
28304;SDS011;15569;42.652;23.040;2023-12-20T09:50:30;17.63;;;8.60;;
28304;SDS011;15569;42.652;23.040;2023-12-20T09:52:57;26.17;;;12.35;;
28304;SDS011;15569;42.652;23.040;2023-12-20T09:55:24;20.38;;;9.50;;
28304;SDS011;15569;42.652;23.040;2023-12-20T09:57:50;12.50;;;7.38;;
28304;SDS011;15569;42.652;23.040;2023-12-20T10:00:16;19.65;;;10.05;;
28304;SDS011;15569;42.652;23.040;2023-12-20T10:02:45;22.13;;;10.52;;
28304;SDS011;15569;42.652;23.040;2023-12-20T10:05:17;18.23;;;9.27;;
28304;SDS011;15569;42.652;23.040;2023-12-20T10:07:48;21.73;;;9.32;;
28304;SDS011;15569;42.652;23.040;2023-12-20T10:10:13;21.65;;;11.30;;
28304;SDS011;15569;42.652;23.040;2023-12-20T10:12:39;23.13;;;12.13;;
28304;SDS011;15569;42.652;23.040;2023-12-20T10:15:05;27.63;;;12.88;;
28304;SDS011;15569;42.652;23.040;2023-12-20T10:17:31;26.10;;;12.18;;
28304;SDS011;15569;42.652;23.040;2023-12-20T10:19:57;25.50;;;12.05;;
28304;SDS011;15569;42.652;23.040;2023-12-20T10:22:23;28.90;;;13.15;;
28304;SDS011;15569;42.652;23.040;2023-12-20T10:24:48;44.35;;;20.23;;
28304;SDS011;15569;42.652;23.040;2023-12-20T10:27:14;28.92;;;14.57;;
28304;SDS011;15569;42.652;23.040;2023-12-20T10:29:39;29.95;;;14.43;;
28304;SDS011;15569;42.652;23.040;2023-12-20T10:32:24;21.38;;;11.55;;
28304;SDS011;15569;42.652;23.040;2023-12-20T10:34:51;24.83;;;12.13;;
28304;SDS011;15569;42.652;23.040;2023-12-20T10:37:17;26.67;;;11.88;;
28304;SDS011;15569;42.652;23.040;2023-12-20T10:39:43;26.20;;;12.90;;
28304;SDS011;15569;42.652;23.040;2023-12-20T10:42:11;35.40;;;16.75;;
28304;SDS011;15569;42.652;23.040;2023-12-20T10:44:37;32.28;;;14.27;;
28304;SDS011;15569;42.652;23.040;2023-12-20T10:47:03;29.52;;;14.82;;
28304;SDS011;15569;42.652;23.040;2023-12-20T10:49:29;34.83;;;15.98;;
28304;SDS011;15569;42.652;23.040;2023-12-20T10:51:56;35.05;;;17.23;;
28304;SDS011;15569;42.652;23.040;2023-12-20T10:54:26;41.65;;;20.70;;
28304;SDS011;15569;42.652;23.040;2023-12-20T10:56:52;39.75;;;19.50;;
28304;SDS011;15569;42.652;23.040;2023-12-20T10:59:19;29.00;;;14.73;;
28304;SDS011;15569;42.652;23.040;2023-12-20T11:01:45;41.20;;;18.65;;
28304;SDS011;15569;42.652;23.040;2023-12-20T11:04:15;39.15;;;19.40;;
28304;SDS011;15569;42.652;23.040;2023-12-20T11:09:17;40.50;;;16.38;;
28304;SDS011;15569;42.652;23.040;2023-12-20T11:14:47;29.58;;;14.73;;
28304;SDS011;15569;42.652;23.040;2023-12-20T11:17:15;33.95;;;16.80;;
28304;SDS011;15569;42.652;23.040;2023-12-20T11:22:18;29.85;;;13.52;;
28304;SDS011;15569;42.652;23.040;2023-12-20T11:24:45;28.52;;;14.40;;
28304;SDS011;15569;42.652;23.040;2023-12-20T11:27:12;24.75;;;13.00;;
28304;SDS011;15569;42.652;23.040;2023-12-20T11:29:38;30.90;;;16.40;;
28304;SDS011;15569;42.652;23.040;2023-12-20T11:32:49;54.13;;;29.75;;
28304;SDS011;15569;42.652;23.040;2023-12-20T11:34:50;53.05;;;24.48;;
28304;SDS011;15569;42.652;23.040;2023-12-20T11:37:16;57.67;;;30.45;;
28304;SDS011;15569;42.652;23.040;2023-12-20T11:39:45;39.58;;;20.35;;
28304;SDS011;15569;42.652;23.040;2023-12-20T11:42:12;30.55;;;16.17;;
28304;SDS011;15569;42.652;23.040;2023-12-20T11:44:41;24.35;;;13.40;;
28304;SDS011;15569;42.652;23.040;2023-12-20T11:47:07;25.85;;;12.35;;
28304;SDS011;15569;42.652;23.040;2023-12-20T11:49:32;23.55;;;11.75;;
28304;SDS011;15569;42.652;23.040;2023-12-20T11:51:58;23.10;;;12.60;;
28304;SDS011;15569;42.652;23.040;2023-12-20T11:54:25;19.95;;;11.60;;
28304;SDS011;15569;42.652;23.040;2023-12-20T11:56:50;23.60;;;12.40;;
28304;SDS011;15569;42.652;23.040;2023-12-20T11:59:15;21.75;;;12.20;;
28304;SDS011;15569;42.652;23.040;2023-12-20T12:01:48;49.97;;;38.65;;
28304;SDS011;15569;42.652;23.040;2023-12-20T12:04:15;19.25;;;10.85;;
28304;SDS011;15569;42.652;23.040;2023-12-20T12:06:42;20.35;;;11.60;;
28304;SDS011;15569;42.652;23.040;2023-12-20T12:09:08;19.85;;;10.82;;
28304;SDS011;15569;42.652;23.040;2023-12-20T12:11:33;15.75;;;9.77;;
28304;SDS011;15569;42.652;23.040;2023-12-20T12:13:59;20.90;;;11.40;;
28304;SDS011;15569;42.652;23.040;2023-12-20T12:16:24;31.70;;;25.23;;
28304;SDS011;15569;42.652;23.040;2023-12-20T12:18:56;29.27;;;20.52;;
28304;SDS011;15569;42.652;23.040;2023-12-20T12:21:22;18.30;;;11.75;;
28304;SDS011;15569;42.652;23.040;2023-12-20T12:23:48;18.77;;;12.20;;
28304;SDS011;15569;42.652;23.040;2023-12-20T12:26:13;21.08;;;12.80;;
28304;SDS011;15569;42.652;23.040;2023-12-20T12:28:42;23.70;;;12.93;;
28304;SDS011;15569;42.652;23.040;2023-12-20T12:31:08;28.05;;;15.10;;
28304;SDS011;15569;42.652;23.040;2023-12-20T12:33:37;19.75;;;12.25;;
28304;SDS011;15569;42.652;23.040;2023-12-20T12:36:03;25.05;;;14.35;;
28304;SDS011;15569;42.652;23.040;2023-12-20T12:38:32;24.35;;;13.13;;
28304;SDS011;15569;42.652;23.040;2023-12-20T12:40:57;19.20;;;12.65;;
28304;SDS011;15569;42.652;23.040;2023-12-20T12:43:23;27.23;;;12.02;;
28304;SDS011;15569;42.652;23.040;2023-12-20T12:45:49;20.15;;;12.23;;
28304;SDS011;15569;42.652;23.040;2023-12-20T12:48:14;15.88;;;9.00;;
28304;SDS011;15569;42.652;23.040;2023-12-20T12:50:40;12.77;;;8.40;;
28304;SDS011;15569;42.652;23.040;2023-12-20T12:53:05;13.70;;;8.88;;
28304;SDS011;15569;42.652;23.040;2023-12-20T12:55:31;14.15;;;8.45;;
28304;SDS011;15569;42.652;23.040;2023-12-20T12:57:56;17.63;;;10.25;;
28304;SDS011;15569;42.652;23.040;2023-12-20T13:00:22;24.63;;;9.93;;
28304;SDS011;15569;42.652;23.040;2023-12-20T13:02:47;18.70;;;10.02;;
28304;SDS011;15569;42.652;23.040;2023-12-20T13:05:13;19.38;;;10.30;;
28304;SDS011;15569;42.652;23.040;2023-12-20T13:07:38;18.20;;;9.93;;
28304;SDS011;15569;42.652;23.040;2023-12-20T13:10:04;24.10;;;12.65;;
28304;SDS011;15569;42.652;23.040;2023-12-20T13:12:30;21.77;;;13.23;;
28304;SDS011;15569;42.652;23.040;2023-12-20T13:14:57;15.88;;;9.27;;
28304;SDS011;15569;42.652;23.040;2023-12-20T13:17:23;11.57;;;7.03;;
28304;SDS011;15569;42.652;23.040;2023-12-20T13:19:51;14.85;;;7.70;;
28304;SDS011;15569;42.652;23.040;2023-12-20T13:22:16;10.13;;;6.35;;
28304;SDS011;15569;42.652;23.040;2023-12-20T13:24:41;12.98;;;7.10;;
28304;SDS011;15569;42.652;23.040;2023-12-20T13:27:09;10.50;;;6.38;;
28304;SDS011;15569;42.652;23.040;2023-12-20T13:29:35;14.43;;;7.47;;
28304;SDS011;15569;42.652;23.040;2023-12-20T13:32:00;13.88;;;7.95;;
28304;SDS011;15569;42.652;23.040;2023-12-20T13:34:26;13.57;;;7.10;;
28304;SDS011;15569;42.652;23.040;2023-12-20T13:36:51;14.63;;;7.60;;
28304;SDS011;15569;42.652;23.040;2023-12-20T13:39:16;15.50;;;7.78;;
28304;SDS011;15569;42.652;23.040;2023-12-20T13:41:42;14.77;;;7.80;;
28304;SDS011;15569;42.652;23.040;2023-12-20T13:44:07;11.93;;;6.97;;
28304;SDS011;15569;42.652;23.040;2023-12-20T13:46:33;13.32;;;7.07;;
28304;SDS011;15569;42.652;23.040;2023-12-20T13:48:58;16.05;;;8.32;;
28304;SDS011;15569;42.652;23.040;2023-12-20T13:51:24;18.90;;;10.43;;
28304;SDS011;15569;42.652;23.040;2023-12-20T13:53:50;71.03;;;28.73;;
28304;SDS011;15569;42.652;23.040;2023-12-20T13:56:15;104.30;;;44.22;;
28304;SDS011;15569;42.652;23.040;2023-12-20T13:58:41;69.60;;;27.70;;
28304;SDS011;15569;42.652;23.040;2023-12-20T14:01:09;60.97;;;24.27;;
28304;SDS011;15569;42.652;23.040;2023-12-20T14:03:35;55.03;;;23.05;;
28304;SDS011;15569;42.652;23.040;2023-12-20T14:06:01;68.45;;;26.70;;
28304;SDS011;15569;42.652;23.040;2023-12-20T14:08:26;56.33;;;24.98;;
28304;SDS011;15569;42.652;23.040;2023-12-20T14:10:52;47.60;;;19.92;;
28304;SDS011;15569;42.652;23.040;2023-12-20T14:13:17;41.78;;;19.05;;